Time;durP1;ratioP1;P1;durP2;ratioP2;P2;SDS_P1;SDS_P2;PMS_P1;PMS_P2;Temp;Humidity;BMP_temperature;BMP_pressure;BME280_temperature;BME280_humidity;BME280_pressure;Samples;Min_cycle;Max_cycle;Signal;HPM_P1;HPM_P2
2021/11/19 00:00:48;;;;;;;13.32;7.53;;;;;;;9.48;61.94;100577.81;5013962;28;20033;-38
2021/11/19 00:03:13;;;;;;;12.52;7.35;;;;;;;9.51;61.76;100577.47;5013183;28;20026;-39
2021/11/19 00:05:40;;;;;;;14.68;7.88;;;;;;;9.65;61.27;100587.34;5013150;28;20022;-38
2021/11/19 00:08:06;;;;;;;13.18;7.82;;;;;;;9.62;61.48;100584.22;5013015;28;20045;-38
2021/11/19 00:10:32;;;;;;;11.73;7.65;;;;;;;9.58;61.43;100586.41;5013107;28;20049;-38
2021/11/19 00:12:57;;;;;;;12.52;8.05;;;;;;;9.51;61.78;100582.81;5013094;28;20129;-38
2021/11/19 00:15:23;;;;;;;11.27;7.50;;;;;;;9.64;61.59;100588.34;5013273;28;20049;-38
2021/11/19 00:17:48;;;;;;;11.38;7.18;;;;;;;9.62;60.93;100593.03;5013211;28;20034;-38
2021/11/19 00:20:15;;;;;;;13.13;7.35;;;;;;;9.36;61.18;100594.16;5012623;28;20033;-38
2021/11/19 00:22:41;;;;;;;10.90;7.30;;;;;;;9.32;61.54;100597.34;5012722;28;20480;-38
2021/11/19 00:25:07;;;;;;;12.05;7.80;;;;;;;9.39;61.15;100604.44;5012549;28;20018;-38
2021/11/19 00:27:33;;;;;;;11.23;7.00;;;;;;;9.25;61.33;100597.22;5011279;28;20030;-38
2021/11/19 00:29:59;;;;;;;11.55;6.63;;;;;;;9.09;61.32;100598.13;5012438;28;20030;-37
2021/11/19 00:32:25;;;;;;;9.82;6.57;;;;;;;9.06;62.06;100597.63;5012066;28;20025;-38
2021/11/19 00:34:50;;;;;;;10.10;6.50;;;;;;;8.88;62.07;100605.84;5012164;28;20033;-37
2021/11/19 00:37:17;;;;;;;10.95;6.60;;;;;;;8.93;62.31;100606.16;5012142;28;20458;-37
2021/11/19 00:39:42;;;;;;;11.45;6.70;;;;;;;8.82;62.34;100602.06;5012440;28;20374;-38
2021/11/19 00:42:08;;;;;;;12.45;6.70;;;;;;;8.58;63.03;100593.16;5012475;28;20025;-37
2021/11/19 00:44:34;;;;;;;10.98;6.65;;;;;;;9.06;62.38;100597.63;5012202;28;20021;-38
2021/11/19 00:47:00;;;;;;;11.55;7.40;;;;;;;9.44;60.27;100595.13;5012120;28;20084;-38
2021/11/19 00:49:28;;;;;;;10.57;6.75;;;;;;;8.96;61.64;100598.66;5011772;28;20029;-38
2021/11/19 00:51:54;;;;;;;9.95;6.70;;;;;;;8.80;62.29;100598.75;5011994;28;20018;-38
2021/11/19 00:54:20;;;;;;;12.13;7.03;;;;;;;8.77;62.67;100602.56;5011666;28;20037;-38
2021/11/19 00:56:49;;;;;;;11.95;6.72;;;;;;;9.05;61.48;100590.69;5011792;28;20117;-38
2021/11/19 00:59:15;;;;;;;11.13;6.82;;;;;;;9.10;61.27;100591.84;5012152;28;20121;-38
2021/11/19 01:01:49;;;;;;;10.27;6.60;;;;;;;9.51;60.21;100598.75;5012467;28;20209;-37
2021/11/19 01:04:15;;;;;;;11.30;6.80;;;;;;;9.62;59.61;100589.56;5012593;28;20022;-38
2021/11/19 01:06:40;;;;;;;11.85;7.15;;;;;;;9.69;59.19;100596.63;5012358;28;20034;-38
2021/11/19 01:09:08;;;;;;;10.50;6.80;;;;;;;9.61;59.29;100585.22;5012499;28;20026;-38
2021/11/19 01:11:34;;;;;;;13.68;6.90;;;;;;;9.71;59.39;100589.31;5010847;28;20146;-38
2021/11/19 01:14:00;;;;;;;11.35;6.45;;;;;;;9.61;59.49;100593.19;5012325;28;20187;-38
2021/11/19 01:16:33;;;;;;;12.05;6.90;;;;;;;9.55;59.93;100587.56;5012336;28;20038;-38
2021/11/19 01:19:03;;;;;;;12.65;7.13;;;;;;;9.50;59.84;100591.75;5012317;28;20022;-38
2021/11/19 01:21:33;;;;;;;10.77;6.70;;;;;;;9.33;60.27;100594.53;5012002;28;20025;-38
2021/11/19 01:24:00;;;;;;;;;;;;;;;9.52;59.83;100587.09;5012423;28;20030;-38
2021/11/19 01:26:29;;;;;;;11.65;7.15;;;;;;;9.40;60.19;100594.66;5010853;28;19971;-38
2021/11/19 01:28:57;;;;;;;12.77;6.82;;;;;;;9.13;60.49;100594.13;5012263;28;20045;-38
2021/11/19 01:31:29;;;;;;;13.50;7.40;;;;;;;9.23;60.23;100585.13;5012099;28;20045;-38
2021/11/19 01:33:54;;;;;;;10.57;6.80;;;;;;;9.43;59.64;100593.50;5012106;28;20045;-38
2021/11/19 01:36:20;;;;;;;11.55;7.38;;;;;;;9.45;59.07;100594.97;5011666;28;20018;-38
2021/11/19 01:38:46;;;;;;;11.75;7.32;;;;;;;9.14;60.14;100579.03;5011753;28;20089;-38
2021/11/19 01:41:15;;;;;;;11.70;6.93;;;;;;;9.06;60.13;100579.88;5012066;28;20053;-38
2021/11/19 01:43:41;;;;;;;11.75;7.18;;;;;;;8.91;60.14;100574.50;5011723;28;20108;-38
2021/11/19 01:46:08;;;;;;;10.60;6.40;;;;;;;8.93;60.09;100590.22;5010377;28;20030;-38
2021/11/19 01:48:41;;;;;;;11.57;7.05;;;;;;;8.87;60.31;100582.94;5012158;28;20030;-38
2021/11/19 01:51:26;;;;;;;10.73;7.10;;;;;;;8.99;59.67;100584.25;5010488;28;20026;-38
2021/11/19 01:53:54;;;;;;;11.25;6.93;;;;;;;8.88;60.27;100581.97;5010017;28;20084;-38
2021/11/19 01:56:34;;;;;;;11.55;7.38;;;;;;;9.03;59.78;100576.75;5009736;28;20046;-38
2021/11/19 01:59:05;;;;;;;9.60;6.72;;;;;;;9.15;59.33;100576.19;5011479;28;20166;-38
2021/11/19 02:01:39;;;;;;;10.93;6.80;;;;;;;8.87;60.22;100578.50;5010024;28;20038;-38
2021/11/19 02:04:07;;;;;;;10.80;6.90;;;;;;;8.94;60.08;100579.44;5011476;28;20026;-38
2021/11/19 02:06:40;;;;;;;13.32;7.22;;;;;;;9.11;59.62;100569.56;5011522;28;20037;-38
2021/11/19 02:09:07;;;;;;;10.48;6.50;;;;;;;9.19;59.49;100572.19;4994197;28;20033;-38
2021/11/19 02:12:04;;;;;;;11.27;7.28;;;;;;;9.14;59.38;100571.06;5011452;28;20046;-39
2021/11/19 02:15:05;;;;;;;12.20;7.40;;;;;;;9.14;59.65;100579.03;5009811;28;20037;-38
2021/11/19 02:17:30;;;;;;;12.30;7.38;;;;;;;9.02;59.87;100581.22;5004389;28;20125;-38
2021/11/19 02:19:58;;;;;;;11.63;6.95;;;;;;;8.80;60.63;100572.19;5010232;28;20025;-37
2021/11/19 02:22:46;;;;;;;12.65;7.47;;;;;;;8.69;61.45;100583.19;5011310;28;20120;-38
2021/11/19 02:25:21;;;;;;;11.98;7.30;;;;;;;8.83;60.90;100592.25;5010566;28;20113;-38
2021/11/19 02:27:59;;;;;;;10.38;7.07;;;;;;;8.30;62.61;100573.28;5009647;28;20050;-38
2021/11/19 02:30:34;;;;;;;12.98;7.47;;;;;;;8.43;62.16;100570.16;5010845;28;20065;-38
2021/11/19 02:33:09;;;;;;;11.82;6.97;;;;;;;8.49;61.83;100569.47;5010516;28;20122;-38
2021/11/19 02:35:45;;;;;;;11.45;7.07;;;;;;;8.40;62.70;100574.75;5010344;28;20073;-38
2021/11/19 02:38:11;;;;;;;11.80;7.05;;;;;;;8.39;63.07;100580.22;5010986;28;20034;-38
2021/11/19 02:40:38;;;;;;;11.32;7.28;;;;;;;8.97;60.64;100579.09;5010611;28;20108;-38
2021/11/19 02:43:28;;;;;;;11.02;7.40;;;;;;;9.25;60.15;100575.16;5010654;28;20233;-38
2021/11/19 02:45:54;;;;;;;10.75;6.43;;;;;;;8.88;60.63;100571.34;5000746;28;20044;-38
2021/11/19 02:48:22;;;;;;;11.52;6.85;;;;;;;8.74;61.73;100573.72;5010470;28;20026;-38
2021/11/19 02:50:48;;;;;;;12.38;6.97;;;;;;;8.60;61.86;100569.94;5010549;28;20025;-38
2021/11/19 02:53:14;;;;;;;11.32;7.00;;;;;;;8.70;61.84;100559.13;5010619;28;20029;-39
2021/11/19 02:55:42;;;;;;;12.25;7.13;;;;;;;8.82;61.59;100567.56;5010369;28;20056;-38
2021/11/19 02:58:09;;;;;;;12.38;7.00;;;;;;;9.23;60.13;100580.63;5010708;28;20054;-38
2021/11/19 03:00:42;;;;;;;11.10;6.90;;;;;;;9.10;60.62;100575.91;5010658;28;20049;-40
2021/11/19 03:03:08;;;;;;;11.30;6.57;;;;;;;8.87;61.65;100574.97;5010831;28;20461;-37
2021/11/19 03:05:33;;;;;;;12.05;6.50;;;;;;;8.59;62.24;100568.28;5011034;28;20029;-37
2021/11/19 03:07:59;;;;;;;13.32;7.32;;;;;;;8.64;62.27;100570.41;5014376;28;20026;-38
2021/11/19 03:10:45;;;;;;;11.02;6.80;;;;;;;8.69;62.29;100569.91;5014555;28;20109;-38
2021/11/19 03:13:11;;;;;;;12.43;6.95;;;;;;;8.79;62.00;100574.00;5013492;28;20117;-38
2021/11/19 03:15:39;;;;;;;11.52;6.60;;;;;;;9.25;60.50;100577.81;5014427;28;20102;-38
2021/11/19 03:18:04;;;;;;;11.25;6.60;;;;;;;8.91;61.53;100581.59;5014568;28;20030;-37
2021/11/19 03:20:30;;;;;;;9.80;6.40;;;;;;;8.73;61.44;100540.19;5014265;28;20026;-38
2021/11/19 03:22:56;;;;;;;10.02;6.38;;;;;;;9.02;60.93;100572.44;5014508;28;20038;-38
2021/11/19 03:25:28;;;;;;;11.75;6.65;;;;;;;9.02;61.14;100569.78;5014340;28;20053;-38
2021/11/19 03:27:54;;;;;;;11.20;6.80;;;;;;;8.77;61.89;100576.00;5014224;28;20060;-38
2021/11/19 03:30:20;;;;;;;9.55;6.00;;;;;;;8.80;62.07;100580.16;5014215;28;20054;-38
2021/11/19 03:32:47;;;;;;;9.88;6.07;;;;;;;8.84;61.71;100568.22;5014531;28;20481;-38
2021/11/19 03:35:14;;;;;;;8.88;5.70;;;;;;;8.90;61.81;100564.03;5012977;28;20037;-38
2021/11/19 03:37:42;;;;;;;9.93;6.28;;;;;;;9.13;61.13;100575.53;5013846;28;20501;-38
2021/11/19 03:40:09;;;;;;;8.82;5.65;;;;;;;8.89;62.01;100575.63;4996668;28;20406;-38
2021/11/19 03:42:34;;;;;;;10.93;6.32;;;;;;;8.92;61.64;100564.69;5013999;28;20477;-38
2021/11/19 03:45:01;;;;;;;8.93;6.00;;;;;;;8.88;62.19;100574.81;5013874;28;20033;-38
2021/11/19 03:47:32;;;;;;;9.43;6.03;;;;;;;8.91;62.06;100565.66;5014003;28;20227;-39
2021/11/19 03:49:57;;;;;;;9.07;6.03;;;;;;;8.91;61.79;100568.31;5013794;28;20089;-39
2021/11/19 03:52:26;;;;;;;11.93;6.00;;;;;;;9.17;61.35;100571.53;5013935;28;20485;-39
2021/11/19 03:54:56;;;;;;;8.60;5.68;;;;;;;8.64;62.39;100573.06;5013500;28;20054;-38
2021/11/19 03:57:22;;;;;;;9.45;5.82;;;;;;;8.43;63.43;100573.63;5013733;28;20034;-39
2021/11/19 03:59:49;;;;;;;9.13;5.95;;;;;;;8.42;63.66;100569.31;5013685;28;20032;-37
2021/11/19 04:02:14;;;;;;;8.55;5.95;;;;;;;8.75;62.42;100577.19;5013688;28;20133;-37
2021/11/19 04:04:40;;;;;;;11.38;6.10;;;;;;;8.97;61.99;100572.97;5013522;28;20018;-38
2021/11/19 04:07:07;;;;;;;12.48;6.32;;;;;;;9.57;60.39;100566.97;5013634;28;20065;-37
2021/11/19 04:09:33;;;;;;;11.60;6.50;;;;;;;9.23;60.56;100563.88;5013675;28;20037;-38
2021/11/19 04:11:59;;;;;;;9.38;6.15;;;;;;;9.03;61.28;100580.25;5012377;28;20045;-38
2021/11/19 04:14:24;;;;;;;10.90;6.13;;;;;;;9.08;60.82;100571.75;5013628;28;20052;-38
2021/11/19 04:16:51;;;;;;;11.05;6.63;;;;;;;8.84;61.59;100573.50;5012843;28;20021;-38
2021/11/19 04:19:18;;;;;;;11.95;6.72;;;;;;;8.62;62.51;100575.06;5011534;28;20068;-38
2021/11/19 04:21:43;;;;;;;11.13;6.75;;;;;;;8.51;62.52;100565.66;5013000;28;20029;-38
2021/11/19 04:24:10;;;;;;;11.07;7.22;;;;;;;8.56;62.80;100563.31;5012720;28;20033;-38
2021/11/19 04:26:36;;;;;;;12.00;7.30;;;;;;;9.32;60.43;100565.47;5012965;28;20017;-38
2021/11/19 04:29:03;;;;;;;13.23;7.70;;;;;;;9.16;60.29;100566.41;5013216;28;20095;-38
2021/11/19 04:31:29;;;;;;;11.70;7.10;;;;;;;8.32;62.17;100545.63;5013069;28;20053;-38
2021/11/19 04:33:55;;;;;;;11.82;7.10;;;;;;;8.50;62.22;100563.19;5013247;28;20033;-37
2021/11/19 04:36:20;;;;;;;12.15;7.10;;;;;;;8.28;63.06;100570.81;5012983;28;20033;-38
2021/11/19 04:38:46;;;;;;;13.90;8.57;;;;;;;8.76;61.89;100560.28;5012979;28;20026;-38
2021/11/19 04:41:12;;;;;;;15.70;8.88;;;;;;;9.10;60.52;100556.47;5013196;28;20030;-38
2021/11/19 04:43:38;;;;;;;12.02;8.05;;;;;;;9.09;60.33;100563.59;5013120;28;20362;-37
2021/11/19 04:46:05;;;;;;;12.23;7.70;;;;;;;8.54;61.96;100560.00;5012625;28;20022;-37
2021/11/19 04:48:34;;;;;;;11.70;7.50;;;;;;;8.98;60.91;100559.50;5012401;28;20502;-38
2021/11/19 04:51:01;;;;;;;12.52;7.18;;;;;;;8.36;62.70;100557.53;5013199;28;20033;-38
2021/11/19 04:53:27;;;;;;;11.50;7.10;;;;;;;8.40;62.73;100556.19;5011519;28;20120;-38
2021/11/19 04:55:53;;;;;;;13.48;7.75;;;;;;;8.82;61.75;100551.63;5012325;28;20598;-38
2021/11/19 04:58:19;;;;;;;12.50;7.13;;;;;;;9.03;60.60;100564.31;5012471;28;20026;-38
2021/11/19 05:00:51;;;;;;;11.93;7.43;;;;;;;8.93;60.70;100558.34;5012015;28;20049;-38
2021/11/19 05:03:17;;;;;;;13.32;7.05;;;;;;;8.42;62.52;100569.31;5001886;28;20068;-38
2021/11/19 05:05:43;;;;;;;14.93;8.07;;;;;;;9.06;61.48;100563.13;5011789;28;20450;-38
2021/11/19 05:08:08;;;;;;;13.05;7.85;;;;;;;8.89;61.23;100565.88;5011333;28;20081;-38
2021/11/19 05:10:35;;;;;;;10.48;7.38;;;;;;;8.95;61.32;100572.31;5011556;28;20591;-37
2021/11/19 05:13:01;;;;;;;12.80;7.72;;;;;;;9.49;59.32;100575.00;5010459;28;20446;-38
2021/11/19 05:15:29;;;;;;;11.77;8.00;;;;;;;9.24;60.46;100576.97;5009811;28;20045;-38
2021/11/19 05:17:54;;;;;;;12.85;8.07;;;;;;;9.44;60.01;100569.38;5011623;28;20085;-38
2021/11/19 05:20:21;;;;;;;12.27;7.85;;;;;;;8.97;61.09;100576.44;5011036;28;20030;-38
2021/11/19 05:22:46;;;;;;;11.55;7.57;;;;;;;8.99;61.18;100577.09;5011420;28;20057;-37
2021/11/19 05:25:13;;;;;;;14.18;8.52;;;;;;;8.89;61.53;100580.94;5011396;28;20463;-38
2021/11/19 05:27:38;;;;;;;13.15;8.23;;;;;;;8.96;61.48;100585.41;5010988;28;20100;-38
2021/11/19 05:30:06;;;;;;;12.05;7.72;;;;;;;8.98;61.56;100579.91;5010154;28;20117;-38
2021/11/19 05:32:31;;;;;;;11.70;7.68;;;;;;;8.87;62.02;100572.31;5011084;28;20026;-38
2021/11/19 05:34:57;;;;;;;11.63;7.53;;;;;;;9.00;61.93;100586.72;5009197;28;20120;-39
2021/11/19 05:37:23;;;;;;;15.68;8.13;;;;;;;8.81;62.05;100587.13;5008731;28;20029;-37
2021/11/19 05:39:48;;;;;;;12.55;7.65;;;;;;;9.20;61.01;100588.97;5009955;28;20442;-39
2021/11/19 05:42:14;;;;;;;12.32;8.05;;;;;;;8.94;61.77;100595.38;5023886;28;20112;-38
2021/11/19 05:44:40;;;;;;;14.95;7.72;;;;;;;9.20;61.20;100597.75;5010273;28;20037;-40
2021/11/19 05:47:07;;;;;;;12.60;8.43;;;;;;;9.23;61.58;100598.41;5010672;28;20096;-39
2021/11/19 05:49:33;;;;;;;14.10;8.38;;;;;;;9.45;60.36;100602.09;5009871;28;20036;-38
2021/11/19 05:51:59;;;;;;;15.10;8.80;;;;;;;9.17;60.31;100606.03;5010669;28;20104;-38
2021/11/19 05:54:27;;;;;;;19.50;10.65;;;;;;;9.03;61.49;100601.47;5010800;28;20040;-40
2021/11/19 05:56:54;;;;;;;14.68;9.00;;;;;;;8.95;61.50;100607.66;5010042;28;20041;-39
2021/11/19 05:59:19;;;;;;;15.55;8.85;;;;;;;9.23;60.79;100601.06;5009296;28;20022;-38
2021/11/19 06:01:45;;;;;;;14.27;9.18;;;;;;;9.62;58.95;100597.53;5009011;28;20040;-39
2021/11/19 06:04:10;;;;;;;15.10;8.65;;;;;;;9.44;59.64;100605.75;5007706;28;20022;-38
2021/11/19 06:06:36;;;;;;;14.07;8.55;;;;;;;9.28;59.60;100610.16;5008903;28;20030;-38
2021/11/19 06:09:02;;;;;;;15.07;8.57;;;;;;;9.02;60.52;100617.56;5008778;28;20135;-37
2021/11/19 06:11:49;;;;;;;12.07;8.02;;;;;;;8.78;60.70;100617.50;5008626;28;20495;-37
2021/11/19 06:14:24;;;;;;;12.80;8.75;;;;;;;8.81;60.95;100616.31;5006808;28;20040;-38
2021/11/19 06:16:56;;;;;;;15.52;9.98;;;;;;;8.75;61.33;100593.94;5009684;28;20030;-38
2021/11/19 06:19:23;;;;;;;15.50;9.15;;;;;;;9.40;59.77;100610.59;5008660;28;20479;-38
2021/11/19 06:21:55;;;;;;;16.60;10.15;;;;;;;9.73;57.94;100613.88;5008551;28;20055;-38
2021/11/19 06:24:24;;;;;;;17.05;10.15;;;;;;;9.49;58.52;100611.38;5008808;28;20021;-37
2021/11/19 06:26:49;;;;;;;17.38;9.98;;;;;;;9.58;58.17;100613.81;4992759;28;20055;-38
2021/11/19 06:29:15;;;;;;;22.00;13.48;;;;;;;9.67;57.93;100616.41;5008787;28;20486;-39
2021/11/19 06:31:43;;;;;;;20.00;12.48;;;;;;;9.76;57.54;100615.34;5010265;28;20076;-39
2021/11/19 06:34:09;;;;;;;17.67;10.55;;;;;;;9.72;57.28;100611.41;5008380;28;20397;-39
2021/11/19 06:36:34;;;;;;;20.20;10.65;;;;;;;9.77;56.79;100619.69;5009605;28;20086;-38
2021/11/19 06:39:01;;;;;;;18.65;10.27;;;;;;;9.82;57.00;100617.28;5010089;28;20398;-38
2021/11/19 06:41:27;;;;;;;16.63;10.60;;;;;;;9.53;57.35;100615.34;5009514;28;20147;-38
2021/11/19 06:43:52;;;;;;;17.77;10.55;;;;;;;9.72;56.88;100614.88;5010288;28;20017;-38
2021/11/19 06:46:20;;;;;;;42.90;25.40;;;;;;;9.75;57.58;100614.53;5009866;28;20422;-37
2021/11/19 06:48:46;;;;;;;17.30;10.50;;;;;;;9.85;57.03;100610.81;5009603;28;20049;-38
2021/11/19 06:51:11;;;;;;;16.02;10.40;;;;;;;9.68;57.78;100602.94;5009880;28;20054;-38
2021/11/19 06:53:37;;;;;;;14.20;9.73;;;;;;;9.92;56.11;100609.09;5009820;28;20088;-38
2021/11/19 06:56:03;;;;;;;15.88;9.98;;;;;;;9.66;56.07;100604.13;5008242;28;20048;-38
2021/11/19 06:58:28;;;;;;;15.18;9.55;;;;;;;9.51;55.92;100610.19;5010311;28;20030;-37
2021/11/19 07:00:55;;;;;;;15.50;9.60;;;;;;;9.65;55.69;100605.13;5009937;28;20037;-39
2021/11/19 07:03:21;;;;;;;17.50;10.30;;;;;;;9.68;55.82;100600.28;5010153;28;20117;-39
2021/11/19 07:05:46;;;;;;;16.13;9.82;;;;;;;9.80;55.30;100600.69;5009612;28;20092;-38
2021/11/19 07:08:13;;;;;;;18.30;10.60;;;;;;;9.33;55.77;100596.38;5010309;28;20157;-39
2021/11/19 07:10:39;;;;;;;20.42;12.23;;;;;;;9.47;55.71;100608.88;5010099;28;20034;-39
2021/11/19 07:13:05;;;;;;;21.05;10.75;;;;;;;9.67;55.05;100603.13;5010154;28;20493;-39
2021/11/19 07:15:31;;;;;;;18.38;11.02;;;;;;;9.86;54.31;100599.16;5010132;28;20068;-39
2021/11/19 07:17:56;;;;;;;17.73;10.00;;;;;;;9.73;54.54;100602.44;5009914;28;20037;-39
2021/11/19 07:20:23;;;;;;;16.30;10.18;;;;;;;9.81;54.12;100612.19;5009970;28;20030;-38
2021/11/19 07:22:49;;;;;;;14.93;9.52;;;;;;;9.97;53.69;100607.53;5009945;28;20057;-40
2021/11/19 07:25:19;;;;;;;16.50;10.00;;;;;;;10.00;53.49;100614.34;5009721;28;20064;-39
2021/11/19 07:27:46;;;;;;;14.55;9.73;;;;;;;9.84;54.12;100617.13;5010059;28;20199;-38
2021/11/19 07:30:16;;;;;;;19.35;10.63;;;;;;;9.64;54.25;100600.81;5009869;28;20084;-38
2021/11/19 07:32:42;;;;;;;17.45;9.77;;;;;;;9.68;54.22;100605.59;5010368;28;20080;-39
2021/11/19 07:35:08;;;;;;;19.05;10.75;;;;;;;9.82;53.78;100608.50;5009971;28;20058;-38
2021/11/19 07:37:35;;;;;;;19.05;10.55;;;;;;;9.75;54.58;100605.75;5009688;28;20113;-38
2021/11/19 07:40:00;;;;;;;20.27;9.82;;;;;;;9.84;53.97;100609.97;5009811;28;20022;-37
2021/11/19 07:42:26;;;;;;;16.48;10.32;;;;;;;9.66;54.34;100615.59;5008518;28;20045;-39
2021/11/19 07:44:51;;;;;;;16.95;9.95;;;;;;;9.63;53.93;100615.09;5009263;28;20072;-37
2021/11/19 07:47:17;;;;;;;18.50;10.30;;;;;;;9.43;54.61;100602.28;5009614;28;20389;-38
2021/11/19 07:49:43;;;;;;;16.27;9.63;;;;;;;9.76;54.14;100602.88;5009409;28;20036;-38
2021/11/19 07:52:08;;;;;;;19.27;9.50;;;;;;;9.70;53.91;100602.78;5009374;28;20025;-38
2021/11/19 07:54:34;;;;;;;16.15;9.55;;;;;;;9.71;53.80;100601.75;5012951;28;20049;-38
2021/11/19 07:56:59;;;;;;;13.85;8.68;;;;;;;9.48;53.88;100609.72;5012942;28;20117;-39
2021/11/19 07:59:27;;;;;;;22.17;12.52;;;;;;;9.36;54.29;100601.31;5012765;28;20422;-38
2021/11/19 08:01:56;;;;;;;14.23;8.70;;;;;;;9.58;53.82;100603.19;5013331;28;20034;-38
2021/11/19 08:04:21;;;;;;;14.23;8.15;;;;;;;9.46;54.09;100601.94;5012370;28;20087;-38
2021/11/19 08:06:47;;;;;;;15.40;8.18;;;;;;;9.55;52.78;100606.19;5012704;28;20021;-38
2021/11/19 08:09:12;;;;;;;11.35;7.28;;;;;;;9.41;53.37;100603.47;5012842;28;20026;-39
2021/11/19 08:11:38;;;;;;;15.18;7.78;;;;;;;9.53;52.61;100604.72;5012715;28;20405;-38
2021/11/19 08:14:04;;;;;;;13.70;7.70;;;;;;;9.64;52.81;100600.81;5012472;28;20097;-37
2021/11/19 08:16:38;;;;;;;15.90;8.23;;;;;;;9.68;52.53;100602.94;5010923;28;20125;-39
2021/11/19 08:19:04;;;;;;;15.18;8.23;;;;;;;9.59;53.04;100591.56;4995978;28;20113;-38
2021/11/19 08:21:30;;;;;;;13.50;7.47;;;;;;;9.72;51.83;100604.25;4991635;28;20128;-39
2021/11/19 08:24:02;;;;;;;14.35;7.95;;;;;;;9.72;51.70;100606.91;4993008;28;20029;-37
2021/11/19 08:26:49;;;;;;;14.80;7.97;;;;;;;10.07;51.19;100603.81;4996340;28;20024;-38
2021/11/19 08:29:17;;;;;;;12.90;7.90;;;;;;;9.85;51.53;100601.00;5012198;28;20496;-38
2021/11/19 08:31:43;;;;;;;14.93;7.90;;;;;;;9.93;50.74;100602.78;5012340;28;20030;-39
2021/11/19 08:34:09;;;;;;;13.35;7.55;;;;;;;9.90;50.78;100593.31;5012225;28;20029;-41
2021/11/19 08:36:34;;;;;;;16.65;7.70;;;;;;;10.07;50.18;100599.34;5012630;28;20029;-39
2021/11/19 08:39:00;;;;;;;13.38;7.70;;;;;;;9.87;50.75;100600.81;5012250;28;20026;-38
2021/11/19 08:41:25;;;;;;;15.27;8.23;;;;;;;10.01;50.42;100604.53;5012310;28;20497;-39
2021/11/19 08:43:52;;;;;;;12.55;7.97;;;;;;;10.05;50.79;100601.34;5012022;28;20426;-39
2021/11/19 08:46:30;;;;;;;17.00;7.80;;;;;;;10.47;49.14;100596.50;5011781;28;20101;-45
2021/11/19 08:48:58;;;;;;;14.50;8.32;;;;;;;10.45;49.94;100598.50;5012026;28;20021;-38
2021/11/19 08:51:25;;;;;;;13.68;7.85;;;;;;;10.55;49.70;100599.09;5012023;28;20036;-38
2021/11/19 08:53:52;;;;;;;13.40;7.72;;;;;;;10.66;48.54;100595.13;5011577;28;20197;-38
2021/11/19 08:56:18;;;;;;;13.95;7.32;;;;;;;10.72;48.13;100587.25;5011561;28;20042;-39
2021/11/19 08:58:43;;;;;;;12.50;7.45;;;;;;;10.71;48.30;100590.09;5011744;28;20036;-37
2021/11/19 09:01:10;;;;;;;13.40;6.35;;;;;;;10.71;47.46;100593.56;5011562;28;20630;-38
2021/11/19 09:03:36;;;;;;;13.07;6.90;;;;;;;10.61;48.64;100595.69;5011400;28;20061;-39
2021/11/19 09:06:02;;;;;;;12.68;7.00;;;;;;;10.78;47.98;100587.53;5011775;28;20049;-39
2021/11/19 09:08:29;;;;;;;10.60;6.68;;;;;;;10.75;48.12;100583.38;4993829;28;20026;-39
2021/11/19 09:10:56;;;;;;;12.30;6.78;;;;;;;10.68;47.54;100577.13;5011149;28;20017;-38
2021/11/19 09:13:21;;;;;;;13.35;6.63;;;;;;;10.48;47.57;100556.41;5011193;28;20104;-40
2021/11/19 09:15:47;;;;;;;12.27;6.60;;;;;;;10.88;47.86;100559.59;4990118;28;20113;-38
2021/11/19 09:18:33;;;;;;;14.95;6.68;;;;;;;11.27;46.81;100561.09;5009321;28;20022;-38
2021/11/19 09:21:07;;;;;;;15.20;6.82;;;;;;;11.25;45.92;100547.16;5011325;28;20022;-38
2021/11/19 09:23:51;;;;;;;13.93;6.38;;;;;;;11.22;46.42;100544.03;5010150;28;20034;-39
2021/11/19 09:26:19;;;;;;;13.57;6.82;;;;;;;10.93;45.82;100535.91;5011718;28;20018;-38
2021/11/19 09:28:47;;;;;;;12.75;6.68;;;;;;;11.09;46.16;100531.38;5010082;28;20032;-38
2021/11/19 09:31:15;;;;;;;16.10;8.00;;;;;;;10.95;46.68;100533.06;5009965;28;20076;-38
2021/11/19 09:33:41;;;;;;;17.48;8.43;;;;;;;10.88;46.87;100524.97;5011021;28;20022;-39
2021/11/19 09:36:06;;;;;;;13.82;6.57;;;;;;;10.87;46.47;100531.34;5011109;28;20036;-38
2021/11/19 09:38:32;;;;;;;14.27;6.88;;;;;;;11.11;46.06;100526.69;5011094;28;20474;-38
2021/11/19 09:41:15;;;;;;;14.35;6.90;;;;;;;11.15;46.60;100517.31;5010975;28;20500;-39
2021/11/19 09:44:05;;;;;;;10.38;5.68;;;;;;;11.08;46.59;100511.06;5011368;28;20026;-39
2021/11/19 09:46:36;;;;;;;8.88;5.07;;;;;;;10.86;46.19;100497.72;4995163;28;20450;-40
2021/11/19 09:49:18;;;;;;;16.05;7.97;;;;;;;10.98;46.06;100497.22;5010782;28;20084;-39
2021/11/19 09:52:21;;;;;;;16.50;6.68;;;;;;;11.09;45.90;100492.22;5009523;28;20022;-38
2021/11/19 09:55:21;;;;;;;10.32;5.82;;;;;;;10.95;46.42;100491.28;4996031;28;20046;-38
2021/11/19 09:58:04;;;;;;;14.13;7.15;;;;;;;11.30;45.73;100490.59;5009664;28;20029;-37
2021/11/19 10:00:55;;;;;;;10.52;5.35;;;;;;;11.38;44.70;100481.66;4990084;28;20478;-39
2021/11/19 10:03:33;;;;;;;16.17;5.45;;;;;;;11.60;44.41;100477.16;5000650;28;20113;-38
2021/11/19 10:06:07;;;;;;;15.32;5.25;;;;;;;11.40;45.01;100479.63;5009394;28;20026;-40
2021/11/19 10:08:57;;;;;;;8.45;4.95;;;;;;;11.29;45.27;100472.97;4995240;28;20080;-40
2021/11/19 10:11:49;;;;;;;10.05;5.43;;;;;;;11.62;44.82;100467.94;5009028;28;20030;-39
2021/11/19 10:14:36;;;;;;;11.40;6.18;;;;;;;11.71;44.67;100464.13;4984028;28;20042;-40
2021/11/19 10:17:04;;;;;;;13.70;5.47;;;;;;;11.47;44.96;100456.53;5010271;28;20033;-38
2021/11/19 10:19:35;;;;;;;10.68;5.78;;;;;;;11.43;45.70;100452.59;5010057;28;20034;-39
2021/11/19 10:22:25;;;;;;;17.90;5.68;;;;;;;11.08;46.31;100440.00;5009379;28;20040;-38
2021/11/19 10:24:52;;;;;;;18.23;5.30;;;;;;;11.19;44.98;100445.81;4996897;28;20025;-38
2021/11/19 10:27:29;;;;;;;9.48;5.82;;;;;;;11.17;45.79;100443.34;5008794;28;20478;-42
2021/11/19 10:30:03;;;;;;;9.45;5.35;;;;;;;11.07;45.75;100440.19;5010058;28;20548;-38
2021/11/19 10:32:30;;;;;;;12.05;5.20;;;;;;;11.20;45.00;100434.97;4990772;28;20056;-38
2021/11/19 10:35:14;;;;;;;11.70;5.28;;;;;;;11.17;44.16;100432.69;4996462;28;20044;-39
2021/11/19 10:38:03;;;;;;;8.57;5.10;;;;;;;11.13;45.01;100424.25;5009810;28;20036;-39
2021/11/19 10:40:47;;;;;;;13.23;5.18;;;;;;;10.99;44.94;100411.81;5002988;28;20026;-38
2021/11/19 10:43:21;;;;;;;12.50;4.88;;;;;;;10.94;44.54;100415.03;5009818;28;20034;-40
2021/11/19 10:45:55;;;;;;;8.02;5.03;;;;;;;10.94;45.22;100414.22;5008223;28;20026;-39
2021/11/19 10:48:59;;;;;;;12.57;5.57;;;;;;;11.06;44.72;100395.91;5008671;28;20030;-40
2021/11/19 10:51:33;;;;;;;7.63;5.07;;;;;;;10.86;45.30;100406.38;5010450;28;20064;-39
2021/11/19 10:54:20;;;;;;;11.18;5.05;;;;;;;10.93;44.50;100399.28;5009862;28;20506;-38
2021/11/19 10:57:04;;;;;;;9.32;4.78;;;;;;;11.03;44.00;100401.63;4996121;28;20117;-39
2021/11/19 10:59:33;;;;;;;8.55;4.53;;;;;;;11.04;44.28;100395.28;5010267;28;20114;-38
2021/11/19 11:02:09;;;;;;;10.32;4.75;;;;;;;11.00;43.64;100396.66;5010000;28;20034;-39
2021/11/19 11:07:32;;;;;;;10.80;4.93;;;;;;;11.40;43.06;100397.84;5008933;28;20080;-39
2021/11/19 11:09:57;;;;;;;7.05;4.43;;;;;;;11.49;43.49;100402.00;5009979;28;20092;-38
2021/11/19 11:12:43;;;;;;;14.85;7.68;;;;;;;11.26;43.87;100382.78;5009509;28;20013;-38
2021/11/19 11:15:31;;;;;;;14.02;7.95;;;;;;;11.08;43.94;100384.06;5009131;28;20033;-39
2021/11/19 11:18:09;;;;;;;8.13;4.50;;;;;;;10.83;44.64;100372.94;5009619;28;20033;-38
2021/11/19 11:20:53;;;;;;;7.43;4.85;;;;;;;10.99;43.74;100363.91;4994399;28;20010;-38
2021/11/19 11:23:43;;;;;;;11.68;4.55;;;;;;;11.17;43.88;100370.59;5009513;28;20114;-38
2021/11/19 11:26:28;;;;;;;6.80;4.93;;;;;;;11.50;43.06;100363.69;5009044;28;20113;-39
2021/11/19 11:29:21;;;;;;;7.88;4.68;;;;;;;11.70;42.23;100339.00;5011367;28;20029;-38
2021/11/19 11:31:51;;;;;;;6.43;4.10;;;;;;;11.89;42.75;100364.13;5007347;28;20212;-38
2021/11/19 11:34:28;;;;;;;9.13;4.65;;;;;;;12.43;41.91;100358.06;5012672;28;20025;-38
2021/11/19 11:37:34;;;;;;;9.90;4.22;;;;;;;12.40;41.21;100353.09;5012740;28;20145;-37
2021/11/19 11:40:02;;;;;;;10.23;4.80;;;;;;;12.40;41.03;100353.09;5011834;28;20022;-39